createdAt,value
2018-12-18T00:00:54.970Z,4.70
2018-12-18T00:02:58.870Z,4.70
2018-12-18T00:05:06.801Z,4.70
2018-12-18T00:07:10.311Z,4.70
2018-12-18T00:09:14.218Z,4.80
2018-12-18T00:11:17.779Z,4.70
2018-12-18T00:13:20.990Z,4.70
2018-12-18T00:15:24.201Z,4.70
2018-12-18T00:17:27.419Z,4.70
2018-12-18T00:19:31.015Z,4.70
2018-12-18T00:21:34.542Z,4.70
2018-12-18T00:23:37.818Z,4.80
2018-12-18T00:25:41.414Z,4.80
2018-12-18T00:27:44.891Z,4.80
2018-12-18T00:29:48.127Z,4.80
2018-12-18T00:31:51.735Z,4.80
2018-12-18T00:33:55.211Z,4.90
2018-12-18T00:35:58.878Z,4.90
2018-12-18T00:38:02.370Z,4.90
2018-12-18T00:40:07.305Z,4.90
2018-12-18T00:42:10.911Z,4.90
2018-12-18T00:44:14.407Z,5.00
2018-12-18T00:46:17.850Z,5.00
2018-12-18T00:48:21.200Z,5.00
2018-12-18T00:50:24.522Z,5.00
2018-12-18T00:52:28.017Z,5.00
2018-12-18T00:54:31.972Z,5.10
2018-12-18T00:56:35.930Z,5.10
2018-12-18T00:58:39.414Z,5.10
2018-12-18T01:00:42.924Z,5.20
2018-12-18T01:02:46.479Z,5.20
2018-12-18T01:04:51.191Z,5.20
2018-12-18T01:06:55.614Z,5.30
2018-12-18T01:08:59.133Z,5.40
2018-12-18T01:11:03.732Z,5.50
2018-12-18T01:13:07.634Z,5.50
2018-12-18T01:15:11.270Z,5.60
2018-12-18T01:17:14.796Z,5.70
2018-12-18T01:19:18.024Z,5.70
2018-12-18T01:21:21.847Z,5.70
2018-12-18T01:23:25.866Z,5.70
2018-12-18T01:25:30.199Z,5.80
2018-12-18T01:27:33.722Z,5.80
2018-12-18T01:29:36.935Z,5.80
2018-12-18T01:31:40.454Z,5.90
2018-12-18T01:33:43.955Z,5.90
2018-12-18T01:35:47.957Z,5.90
2018-12-18T01:37:51.461Z,5.90
2018-12-18T01:39:54.938Z,5.90
2018-12-18T01:41:58.439Z,5.90
2018-12-18T01:44:02.550Z,5.90
2018-12-18T01:46:06.046Z,5.80
2018-12-18T01:48:09.619Z,5.80
2018-12-18T01:50:13.735Z,5.80
2018-12-18T01:52:17.246Z,5.80
2018-12-18T01:54:20.453Z,5.80
2018-12-18T01:56:23.743Z,5.70
2018-12-18T01:58:27.679Z,5.80
2018-12-18T02:00:31.330Z,5.70
2018-12-18T02:02:34.946Z,5.70
2018-12-18T02:04:38.176Z,5.70
2018-12-18T02:06:41.912Z,5.70
2018-12-18T02:08:45.587Z,5.70
2018-12-18T02:10:49.507Z,5.70
2018-12-18T02:12:52.721Z,5.80
2018-12-18T02:14:56.362Z,5.80
2018-12-18T02:16:59.865Z,5.80
2018-12-18T02:19:03.079Z,5.80
2018-12-18T02:21:07.194Z,5.80
2018-12-18T02:23:10.694Z,5.80
2018-12-18T02:25:15.555Z,5.80
2018-12-18T02:27:19.082Z,5.90
2018-12-18T02:29:22.574Z,5.90
2018-12-18T02:31:26.126Z,5.90
2018-12-18T02:33:30.011Z,5.90
2018-12-18T02:35:33.968Z,5.90
2018-12-18T02:37:37.248Z,5.80
2018-12-18T02:39:40.711Z,5.90
2018-12-18T02:41:44.231Z,5.90
2018-12-18T02:43:47.462Z,5.90
2018-12-18T02:45:51.184Z,5.90
2018-12-18T02:47:55.095Z,5.90
2018-12-18T02:49:58.563Z,6.00
2018-12-18T02:52:02.702Z,6.00
2018-12-18T02:54:06.237Z,6.00
2018-12-18T02:56:09.742Z,6.00
2018-12-18T02:58:13.540Z,6.00
2018-12-18T03:00:17.461Z,6.00
2018-12-18T03:02:21.335Z,6.00
2018-12-18T03:04:24.857Z,6.00
2018-12-18T03:06:28.350Z,6.00
2018-12-18T03:08:32.244Z,6.00
2018-12-18T03:10:35.854Z,6.00
2018-12-18T03:12:39.474Z,6.00
2018-12-18T03:14:43.390Z,6.00
2018-12-18T03:16:46.649Z,6.00
2018-12-18T03:18:50.459Z,6.00
2018-12-18T03:20:54.071Z,6.00
2018-12-18T03:22:57.798Z,6.00
2018-12-18T03:25:01.872Z,6.00
2018-12-18T03:27:06.430Z,6.00
2018-12-18T03:29:09.905Z,6.00
2018-12-18T03:31:13.452Z,6.00
2018-12-18T03:33:16.662Z,6.00
2018-12-18T03:35:20.169Z,6.00
2018-12-18T03:37:23.822Z,6.00
2018-12-18T03:39:27.011Z,6.00
2018-12-18T03:41:30.974Z,6.10
2018-12-18T03:43:34.648Z,6.10
2018-12-18T03:45:38.119Z,6.10
2018-12-18T03:47:41.319Z,6.10
2018-12-18T03:49:45.118Z,6.10
2018-12-18T03:51:48.618Z,6.10
2018-12-18T03:53:52.163Z,6.10
2018-12-18T03:55:56.490Z,6.10
2018-12-18T03:58:00.575Z,6.10
2018-12-18T04:00:08.220Z,6.10
2018-12-18T04:02:11.726Z,6.10
2018-12-18T04:04:15.645Z,6.10
2018-12-18T04:06:19.847Z,6.10
2018-12-18T04:08:23.378Z,6.10
2018-12-18T04:10:26.546Z,6.10
2018-12-18T04:12:29.776Z,6.10
2018-12-18T04:14:32.996Z,6.10
2018-12-18T04:16:36.234Z,6.10
2018-12-18T04:18:39.786Z,6.10
2018-12-18T04:20:43.363Z,6.10
2018-12-18T04:22:47.181Z,6.10
2018-12-18T04:24:51.162Z,6.10
2018-12-18T04:26:54.683Z,6.10
2018-12-18T04:28:58.238Z,6.10
2018-12-18T04:31:01.711Z,6.10
2018-12-18T04:33:05.206Z,6.00
2018-12-18T04:35:08.678Z,6.10
2018-12-18T04:37:12.401Z,6.00
2018-12-18T04:39:16.529Z,6.00
2018-12-18T04:41:20.419Z,6.00
2018-12-18T04:43:23.752Z,6.00
2018-12-18T04:45:26.998Z,6.00
2018-12-18T04:47:30.485Z,6.00
2018-12-18T04:49:33.969Z,6.00
2018-12-18T04:51:37.818Z,6.00
2018-12-18T04:53:41.710Z,6.00
2018-12-18T04:55:45.193Z,6.00
2018-12-18T04:57:48.763Z,6.00
2018-12-18T04:59:52.259Z,5.90
2018-12-18T05:01:55.744Z,5.90
2018-12-18T05:03:59.535Z,5.90
2018-12-18T05:06:03.388Z,5.90
2018-12-18T05:08:06.854Z,5.90
2018-12-18T05:10:10.410Z,5.90
2018-12-18T05:12:13.937Z,5.90
2018-12-18T05:14:17.449Z,5.90
2018-12-18T05:16:21.926Z,5.90
2018-12-18T05:18:25.686Z,5.80
2018-12-18T05:20:29.171Z,5.90
2018-12-18T05:22:32.683Z,5.90
2018-12-18T05:24:36.279Z,5.80
2018-12-18T05:26:39.780Z,5.80
2018-12-18T05:28:43.293Z,5.80
2018-12-18T05:30:46.538Z,5.80
2018-12-18T05:32:50.255Z,5.80
2018-12-18T05:34:56.528Z,5.80
2018-12-18T05:36:59.298Z,5.70
2018-12-18T05:39:02.816Z,5.80
2018-12-18T05:41:06.094Z,5.80
2018-12-18T05:43:09.698Z,5.80
2018-12-18T05:45:13.290Z,5.80
2018-12-18T05:47:16.710Z,5.80
2018-12-18T05:49:20.368Z,5.80
2018-12-18T05:51:23.554Z,5.80
2018-12-18T05:53:26.977Z,5.80
2018-12-18T05:55:30.467Z,5.80
2018-12-18T05:57:34.235Z,5.80
2018-12-18T05:59:37.752Z,5.80
2018-12-18T06:01:41.235Z,5.80
2018-12-18T06:03:44.456Z,5.80
2018-12-18T06:05:47.981Z,5.80
2018-12-18T06:07:51.477Z,5.80
2018-12-18T06:09:55.288Z,5.80
2018-12-18T06:11:58.795Z,5.80
2018-12-18T06:14:02.342Z,5.80
2018-12-18T06:16:05.834Z,5.80
2018-12-18T06:18:09.069Z,5.80
2018-12-18T06:20:13.297Z,5.90
2018-12-18T06:22:16.560Z,5.90
2018-12-18T06:24:20.043Z,5.90
2018-12-18T06:26:23.545Z,5.90
2018-12-18T06:28:27.334Z,5.90
2018-12-18T06:30:30.794Z,5.80
2018-12-18T06:32:34.998Z,5.80
2018-12-18T06:34:38.482Z,5.90
2018-12-18T06:36:41.957Z,5.90
2018-12-18T06:38:45.453Z,5.90
2018-12-18T06:40:48.931Z,5.80
2018-12-18T06:42:53.317Z,5.80
2018-12-18T06:44:56.882Z,5.80
2018-12-18T06:47:00.718Z,5.80
2018-12-18T06:49:03.934Z,5.80
2018-12-18T06:51:07.815Z,5.80
2018-12-18T06:53:11.432Z,5.80
2018-12-18T06:55:15.374Z,5.80
2018-12-18T06:57:19.036Z,5.80
2018-12-18T06:59:22.556Z,5.90
2018-12-18T07:01:25.807Z,5.80
2018-12-18T07:03:29.110Z,5.90
2018-12-18T07:05:32.846Z,5.80
2018-12-18T07:07:36.482Z,5.90
2018-12-18T07:09:40.078Z,5.80
2018-12-18T07:11:43.711Z,5.90
2018-12-18T07:13:47.230Z,5.90
2018-12-18T07:15:50.770Z,5.90
2018-12-18T07:17:54.301Z,5.90
2018-12-18T07:19:57.846Z,5.90
2018-12-18T07:22:01.120Z,5.90
2018-12-18T07:24:05.302Z,5.90
2018-12-18T07:26:08.782Z,5.90
2018-12-18T07:28:12.296Z,5.90
2018-12-18T07:30:15.556Z,5.90
2018-12-18T07:32:18.802Z,5.90
2018-12-18T07:34:22.310Z,5.90
2018-12-18T07:36:26.034Z,5.90
2018-12-18T07:38:29.518Z,5.90
2018-12-18T07:40:33.050Z,5.90
2018-12-18T07:42:36.293Z,5.90
2018-12-18T07:44:40.127Z,5.90
2018-12-18T07:46:43.602Z,5.90
2018-12-18T07:48:47.499Z,5.90
2018-12-18T07:50:51.462Z,5.90
2018-12-18T07:54:39.834Z,5.90
2018-12-18T07:56:43.290Z,6.00
2018-12-18T07:58:46.480Z,6.00
2018-12-18T08:00:50.050Z,6.00
2018-12-18T08:02:53.499Z,6.00
2018-12-18T08:04:56.754Z,6.00
2018-12-18T08:07:00.266Z,6.00
2018-12-18T08:09:06.438Z,6.00
2018-12-18T08:11:09.909Z,6.00
2018-12-18T08:13:13.643Z,6.10
2018-12-18T08:15:17.141Z,6.10
2018-12-18T08:17:20.630Z,6.00
2018-12-18T08:19:24.256Z,6.10
2018-12-18T08:21:27.722Z,6.10
2018-12-18T08:23:30.897Z,6.10
2018-12-18T08:25:34.136Z,6.10
2018-12-18T08:27:37.365Z,6.10
2018-12-18T08:29:41.238Z,6.20
2018-12-18T08:31:44.463Z,6.20
2018-12-18T08:33:48.310Z,6.10
2018-12-18T08:35:51.775Z,6.10
2018-12-18T08:37:55.074Z,6.10
2018-12-18T08:39:58.554Z,6.10
2018-12-18T08:42:02.059Z,6.10
2018-12-18T08:44:05.850Z,6.20
2018-12-18T08:46:10.371Z,6.10
2018-12-18T08:48:14.617Z,6.20
2018-12-18T08:50:17.827Z,6.20
2018-12-18T08:52:21.466Z,6.20
2018-12-18T08:54:24.921Z,6.20
2018-12-18T08:56:28.211Z,6.20
2018-12-18T08:58:31.414Z,6.30
2018-12-18T09:00:35.046Z,6.30
2018-12-18T09:02:39.075Z,6.30
2018-12-18T09:04:42.568Z,6.30
2018-12-18T09:06:45.766Z,6.30
2018-12-18T09:08:49.595Z,6.30
2018-12-18T09:10:53.061Z,6.30
2018-12-18T09:12:56.230Z,6.30
2018-12-18T09:15:01.471Z,6.30
2018-12-18T09:17:07.538Z,6.30
2018-12-18T09:19:11.318Z,6.30
2018-12-18T09:21:15.317Z,6.30
2018-12-18T09:23:18.830Z,6.40
2018-12-18T09:25:22.815Z,6.40
2018-12-18T09:27:26.061Z,6.40
2018-12-18T09:29:29.362Z,6.40
2018-12-18T09:31:32.832Z,6.40
2018-12-18T09:33:36.648Z,6.40
2018-12-18T09:35:40.998Z,6.40
2018-12-18T09:37:44.814Z,6.40
2018-12-18T09:39:48.104Z,6.40
2018-12-18T09:41:56.246Z,6.40
2018-12-18T09:44:04.998Z,6.50
2018-12-18T09:46:08.783Z,6.60
2018-12-18T09:48:12.255Z,6.60
2018-12-18T09:50:15.426Z,6.60
2018-12-18T09:52:18.638Z,6.70
2018-12-18T09:54:22.812Z,6.60
2018-12-18T09:56:26.090Z,6.60
2018-12-18T09:58:30.013Z,6.60
2018-12-18T10:00:34.118Z,6.60
2018-12-18T10:02:37.302Z,6.60
2018-12-18T10:04:41.357Z,6.50
2018-12-18T10:06:45.162Z,6.50
2018-12-18T10:08:48.975Z,6.60
2018-12-18T10:10:52.496Z,6.60
2018-12-18T10:12:56.849Z,6.70
2018-12-18T10:15:00.698Z,6.90
2018-12-18T10:17:04.184Z,6.90
2018-12-18T10:19:07.380Z,7.00
2018-12-18T10:21:10.978Z,7.00
2018-12-18T10:23:14.957Z,7.10
2018-12-18T10:25:18.587Z,7.00
2018-12-18T10:27:22.060Z,6.90
2018-12-18T10:29:25.555Z,6.90
2018-12-18T10:31:29.067Z,6.90
2018-12-18T10:33:32.536Z,6.90
2018-12-18T10:35:36.739Z,6.80
2018-12-18T10:37:41.393Z,6.90
2018-12-18T10:39:45.288Z,6.80
2018-12-18T10:41:49.697Z,6.90
2018-12-18T10:43:53.183Z,6.90
2018-12-18T10:45:57.098Z,6.90
2018-12-18T10:48:01.298Z,6.80
2018-12-18T10:50:05.216Z,6.80
2018-12-18T10:52:09.097Z,6.80
2018-12-18T10:54:12.450Z,6.70
2018-12-18T10:56:16.378Z,6.60
2018-12-18T10:58:23.926Z,6.50
2018-12-18T11:00:31.576Z,6.50
2018-12-18T11:02:35.107Z,6.50
2018-12-18T11:04:38.645Z,6.50
2018-12-18T11:06:42.542Z,6.50
2018-12-18T11:08:46.409Z,6.60
2018-12-18T11:10:49.588Z,6.50
2018-12-18T11:12:58.386Z,6.50
2018-12-18T11:15:01.873Z,6.50
2018-12-18T11:17:05.974Z,6.50
2018-12-18T11:19:09.178Z,6.60
2018-12-18T11:21:12.766Z,6.70
2018-12-18T11:23:16.214Z,6.70
2018-12-18T11:25:19.413Z,6.70
2018-12-18T11:27:22.938Z,6.70
2018-12-18T11:29:26.421Z,6.70
2018-12-18T11:31:29.964Z,6.80
2018-12-18T11:33:33.146Z,6.80
2018-12-18T11:35:36.341Z,6.80
2018-12-18T11:37:39.834Z,6.90
2018-12-18T11:39:43.298Z,6.90
2018-12-18T11:41:46.770Z,6.90
2018-12-18T11:43:50.288Z,7.00
2018-12-18T11:45:54.190Z,7.00
2018-12-18T11:47:57.893Z,6.90
2018-12-18T11:50:01.528Z,6.90
2018-12-18T11:52:05.219Z,6.90
2018-12-18T11:54:08.630Z,6.80
2018-12-18T11:56:12.096Z,6.80
2018-12-18T11:58:15.599Z,6.80
2018-12-18T12:00:19.807Z,6.80
2018-12-18T12:02:23.290Z,6.80
2018-12-18T12:04:26.806Z,6.80
2018-12-18T12:06:37.098Z,6.90
2018-12-18T12:08:41.086Z,6.90
2018-12-18T12:10:44.562Z,6.90
2018-12-18T12:12:48.026Z,6.90
2018-12-18T12:14:52.552Z,7.00
2018-12-18T12:16:55.987Z,7.00
2018-12-18T12:18:59.475Z,7.00
2018-12-18T12:21:02.934Z,7.00
2018-12-18T12:23:06.410Z,7.10
2018-12-18T12:25:10.663Z,7.10
2018-12-18T12:27:19.578Z,7.10
2018-12-18T12:29:23.045Z,7.20
2018-12-18T12:31:26.236Z,7.20
2018-12-18T12:33:29.459Z,7.10
2018-12-18T12:35:32.641Z,7.10
2018-12-18T12:37:35.835Z,7.20
2018-12-18T12:39:39.103Z,7.10
2018-12-18T12:41:42.619Z,7.10
2018-12-18T12:43:46.086Z,7.20
2018-12-18T12:45:49.278Z,7.20
2018-12-18T12:47:53.328Z,7.20
2018-12-18T12:49:56.778Z,7.20
2018-12-18T12:51:59.986Z,7.10
2018-12-18T12:54:03.184Z,7.20
2018-12-18T12:56:06.671Z,7.20
2018-12-18T12:58:10.266Z,7.20
2018-12-18T13:00:13.510Z,7.20
2018-12-18T13:02:16.740Z,7.20
2018-12-18T13:04:19.955Z,7.20
2018-12-18T13:06:24.126Z,7.10
2018-12-18T13:08:27.606Z,7.20
2018-12-18T13:10:31.451Z,7.20
2018-12-18T13:12:34.959Z,7.20
2018-12-18T13:14:38.487Z,7.20
2018-12-18T13:16:41.782Z,7.10
2018-12-18T13:18:44.971Z,7.10
2018-12-18T13:20:48.590Z,7.00
2018-12-18T13:22:52.188Z,7.00
2018-12-18T13:24:55.442Z,7.00
2018-12-18T13:26:58.650Z,7.00
2018-12-18T13:29:02.778Z,7.00
2018-12-18T13:31:06.246Z,7.00
2018-12-18T13:33:09.711Z,7.00
2018-12-18T13:35:13.703Z,6.90
2018-12-18T13:37:17.328Z,7.00
2018-12-18T13:39:26.618Z,7.00
2018-12-18T13:41:31.242Z,7.00
2018-12-18T13:43:34.838Z,6.90
2018-12-18T13:45:38.146Z,6.90
2018-12-18T13:47:41.835Z,6.90
2018-12-18T13:49:45.062Z,6.90
2018-12-18T13:51:48.328Z,7.00
2018-12-18T13:53:51.650Z,7.00
2018-12-18T13:55:55.187Z,6.90
2018-12-18T13:57:58.918Z,6.90
2018-12-18T14:00:02.767Z,6.80
2018-12-18T14:02:06.398Z,6.80
2018-12-18T14:04:09.987Z,6.80
2018-12-18T14:06:13.535Z,6.80
2018-12-18T14:08:17.161Z,6.80
2018-12-18T14:10:21.472Z,6.80
2018-12-18T14:12:24.961Z,6.80
2018-12-18T14:14:28.451Z,6.80
2018-12-18T14:16:31.961Z,6.70
2018-12-18T14:18:35.166Z,6.70
2018-12-18T14:20:38.563Z,6.60
2018-12-18T14:22:42.700Z,6.60
2018-12-18T14:24:45.943Z,6.60
2018-12-18T14:26:49.536Z,6.60
2018-12-18T14:28:53.348Z,6.60
2018-12-18T14:30:56.991Z,6.60
2018-12-18T14:33:00.374Z,6.50
2018-12-18T14:35:04.651Z,6.50
2018-12-18T14:37:08.467Z,6.50
2018-12-18T14:39:13.818Z,6.50
2018-12-18T14:41:17.492Z,6.50
2018-12-18T14:43:21.043Z,6.50
2018-12-18T14:45:25.863Z,6.40
2018-12-18T14:47:29.707Z,6.50
2018-12-18T14:49:33.360Z,6.40
2018-12-18T14:51:36.596Z,6.50
2018-12-18T14:53:40.142Z,6.50
2018-12-18T14:55:44.357Z,6.50
2018-12-18T14:57:48.067Z,6.50
2018-12-18T14:59:53.033Z,6.50
2018-12-18T15:01:57.268Z,6.50
2018-12-18T15:04:01.750Z,6.50
2018-12-18T15:06:06.278Z,6.50
2018-12-18T15:08:10.488Z,6.50
2018-12-18T15:10:14.212Z,6.50
2018-12-18T15:12:18.605Z,6.50
2018-12-18T15:14:22.790Z,6.50
2018-12-18T15:16:26.635Z,6.50
2018-12-18T15:18:30.312Z,6.50
2018-12-18T15:20:34.141Z,6.50
2018-12-18T15:22:37.385Z,6.50
2018-12-18T15:24:40.806Z,6.50
2018-12-18T15:26:44.567Z,6.50
2018-12-18T15:28:48.336Z,6.50
2018-12-18T15:30:51.838Z,6.50
2018-12-18T15:32:55.506Z,6.50
2018-12-18T15:34:59.527Z,6.50
2018-12-18T15:37:09.362Z,6.50
2018-12-18T15:39:09.220Z,6.50
2018-12-18T15:41:12.898Z,6.50
2018-12-18T15:43:16.599Z,6.50
2018-12-18T15:45:19.889Z,6.50
2018-12-18T15:47:23.770Z,6.50
2018-12-18T15:49:27.425Z,6.50
2018-12-18T15:51:31.245Z,6.50
2018-12-18T15:53:34.544Z,6.50
2018-12-18T15:55:38.998Z,6.50
2018-12-18T15:57:42.693Z,6.50
2018-12-18T15:59:46.668Z,6.50
2018-12-18T16:01:51.399Z,6.50
2018-12-18T16:03:55.116Z,6.50
2018-12-18T16:05:58.696Z,6.50
2018-12-18T16:08:02.533Z,6.50
2018-12-18T16:10:07.519Z,6.50
2018-12-18T16:12:10.881Z,6.50
2018-12-18T16:14:15.542Z,6.50
2018-12-18T16:16:19.195Z,6.50
2018-12-18T16:18:23.434Z,6.50
2018-12-18T16:20:27.167Z,6.50
2018-12-18T16:22:30.433Z,6.50
2018-12-18T16:24:34.031Z,6.50
2018-12-18T16:26:38.773Z,6.40
2018-12-18T16:28:42.416Z,6.40
2018-12-18T16:30:46.505Z,6.40
2018-12-18T16:32:50.231Z,6.40
2018-12-18T16:34:54.179Z,6.40
2018-12-18T16:36:58.767Z,6.40
2018-12-18T16:39:03.061Z,6.40
2018-12-18T16:41:06.712Z,6.40
2018-12-18T16:43:11.106Z,6.30
2018-12-18T16:45:14.663Z,6.30
2018-12-18T16:47:18.647Z,6.30
2018-12-18T16:49:22.270Z,6.30
2018-12-18T16:51:25.855Z,6.30
2018-12-18T16:53:30.999Z,6.20
2018-12-18T16:55:34.236Z,6.20
2018-12-18T16:57:37.658Z,6.20
2018-12-18T16:59:41.259Z,6.20
2018-12-18T17:01:45.081Z,6.20
2018-12-18T17:03:48.867Z,6.10
2018-12-18T17:05:52.500Z,6.10
2018-12-18T17:07:56.059Z,6.00
2018-12-18T17:09:59.381Z,5.90
2018-12-18T17:12:03.521Z,5.80
2018-12-18T17:14:07.086Z,5.80
2018-12-18T17:16:10.716Z,5.80
2018-12-18T17:18:14.249Z,5.70
2018-12-18T17:20:18.130Z,5.70
2018-12-18T17:22:21.886Z,5.70
2018-12-18T17:24:25.853Z,5.60
2018-12-18T17:26:29.944Z,5.50
2018-12-18T17:28:38.667Z,5.50
2018-12-18T17:30:42.073Z,5.50
2018-12-18T17:32:45.790Z,5.50
2018-12-18T17:34:49.292Z,5.40
2018-12-18T17:36:52.511Z,5.40
2018-12-18T17:38:55.743Z,5.40
2018-12-18T17:40:59.846Z,5.40
2018-12-18T17:43:03.858Z,5.30
2018-12-18T17:45:08.635Z,5.30
2018-12-18T17:47:16.552Z,5.30
2018-12-18T17:49:19.938Z,5.20
2018-12-18T17:51:23.627Z,5.30
2018-12-18T17:53:27.581Z,5.30
2018-12-18T17:55:31.438Z,5.20
2018-12-18T17:57:34.662Z,5.20
2018-12-18T17:59:38.195Z,5.20
2018-12-18T18:01:41.719Z,5.10
2018-12-18T18:03:44.963Z,5.10
2018-12-18T18:05:49.087Z,5.10
2018-12-18T18:07:52.716Z,5.10
2018-12-18T18:09:56.306Z,5.00
2018-12-18T18:11:59.934Z,5.00
2018-12-18T18:14:03.986Z,5.00
2018-12-18T18:16:07.675Z,5.00
2018-12-18T18:18:11.204Z,4.90
2018-12-18T18:20:15.321Z,4.90
2018-12-18T18:22:19.051Z,4.90
2018-12-18T18:24:22.991Z,4.90
2018-12-18T18:26:27.581Z,4.90
2018-12-18T18:28:31.587Z,4.90
2018-12-18T18:30:35.063Z,4.90
2018-12-18T18:32:38.348Z,4.90
2018-12-18T18:34:41.554Z,4.90
2018-12-18T18:36:45.178Z,4.90
2018-12-18T18:38:48.686Z,4.80
2018-12-18T18:40:51.982Z,4.80
2018-12-18T18:42:57.561Z,4.70
2018-12-18T18:45:02.564Z,4.60
2018-12-18T18:47:06.669Z,4.60
2018-12-18T18:49:10.658Z,4.60
2018-12-18T18:51:15.567Z,4.60
2018-12-18T18:53:20.452Z,4.50
2018-12-18T18:55:24.432Z,4.50
2018-12-18T18:57:28.002Z,4.50
2018-12-18T18:59:32.420Z,4.40
2018-12-18T19:01:36.609Z,4.40
2018-12-18T19:03:41.784Z,4.40
2018-12-18T19:05:46.688Z,4.40
2018-12-18T19:07:56.262Z,4.40
2018-12-18T19:09:55.937Z,4.30
2018-12-18T19:12:01.057Z,4.30
2018-12-18T19:14:06.251Z,4.30
2018-12-18T19:16:12.555Z,4.40
2018-12-18T19:18:17.342Z,4.30
2018-12-18T19:20:21.968Z,4.30
2018-12-18T19:22:25.850Z,4.40
2018-12-18T19:24:29.582Z,4.30
2018-12-18T19:26:34.589Z,4.30
2018-12-18T19:28:38.626Z,4.30
2018-12-18T19:33:03.951Z,4.20
2018-12-18T19:35:08.199Z,4.20
2018-12-18T19:37:12.080Z,4.20
2018-12-18T19:39:16.749Z,4.20
2018-12-18T19:41:21.979Z,4.10
2018-12-18T19:43:27.746Z,4.10
2018-12-18T19:45:32.447Z,4.10
2018-12-18T19:47:38.430Z,4.00
2018-12-18T19:49:42.499Z,4.10
2018-12-18T19:51:46.945Z,4.10
2018-12-18T19:53:51.558Z,4.00
2018-12-18T19:55:56.479Z,4.00
2018-12-18T19:58:01.039Z,3.90
2018-12-18T20:00:06.269Z,4.00
2018-12-18T20:02:09.988Z,4.00
2018-12-18T20:04:14.494Z,4.00
2018-12-18T20:06:18.627Z,3.90
2018-12-18T20:08:41.052Z,3.90
2018-12-18T20:10:44.531Z,4.00
2018-12-18T20:12:47.978Z,3.90
2018-12-18T20:14:51.230Z,3.90
2018-12-18T20:16:55.515Z,3.90
2018-12-18T20:19:01.026Z,3.90
2018-12-18T20:21:04.766Z,3.80
2018-12-18T20:23:08.830Z,3.80
2018-12-18T20:25:13.698Z,3.80
2018-12-18T20:27:19.450Z,3.80
2018-12-18T20:29:23.650Z,3.70
2018-12-18T20:31:28.895Z,3.80
2018-12-18T20:33:33.950Z,3.80
2018-12-18T20:35:38.072Z,3.70
2018-12-18T20:37:43.228Z,3.70
2018-12-18T20:39:48.009Z,3.70
2018-12-18T20:41:52.496Z,3.70
2018-12-18T20:43:56.160Z,3.70
2018-12-18T20:46:00.332Z,3.70
2018-12-18T20:48:04.266Z,3.70
2018-12-18T20:50:08.878Z,3.70
2018-12-18T20:52:12.826Z,3.70
2018-12-18T20:54:16.351Z,3.70
2018-12-18T20:56:20.563Z,3.70
2018-12-18T21:06:03.277Z,3.60
2018-12-18T21:08:08.093Z,3.60
2018-12-18T21:10:12.436Z,3.60
2018-12-18T21:12:16.273Z,3.60
2018-12-18T21:14:19.719Z,3.60
2018-12-18T21:16:24.016Z,3.60
2018-12-18T21:18:28.269Z,3.60
2018-12-18T21:20:32.203Z,3.60
2018-12-18T21:22:36.868Z,3.50
2018-12-18T21:24:40.416Z,3.60
2018-12-18T21:26:45.298Z,3.50
2018-12-18T21:28:56.109Z,3.50
2018-12-18T21:31:01.869Z,3.50
2018-12-18T21:33:05.822Z,3.50
2018-12-18T21:35:09.571Z,3.60
2018-12-18T21:37:14.697Z,3.60
2018-12-18T21:39:20.218Z,3.50
2018-12-18T21:41:23.885Z,3.60
2018-12-18T21:43:28.004Z,3.60
2018-12-18T21:45:32.084Z,3.60
2018-12-18T21:47:36.260Z,3.60
2018-12-18T21:49:40.592Z,3.50
2018-12-18T21:51:45.933Z,3.50
2018-12-18T21:53:49.221Z,3.50
2018-12-18T21:55:53.198Z,3.50
2018-12-18T21:57:57.174Z,3.50
2018-12-18T22:00:01.802Z,3.40
2018-12-18T22:02:06.801Z,3.50
2018-12-18T22:04:11.047Z,3.40
2018-12-18T22:06:17.404Z,3.40
2018-12-18T22:08:21.442Z,3.50
2018-12-18T22:10:25.954Z,3.50
2018-12-18T22:12:29.878Z,3.50
2018-12-18T22:14:33.954Z,3.50
2018-12-18T22:16:38.442Z,3.50
2018-12-18T22:18:42.202Z,3.50
2018-12-18T22:20:46.757Z,3.50
2018-12-18T22:22:51.165Z,3.50
2018-12-18T22:24:56.009Z,3.50
2018-12-18T22:27:00.195Z,3.50
2018-12-18T22:29:04.241Z,3.60
2018-12-18T22:31:07.451Z,3.60
2018-12-18T22:33:10.945Z,3.60
2018-12-18T22:35:15.232Z,3.50
2018-12-18T22:37:18.719Z,3.50
2018-12-18T22:39:22.228Z,3.40
2018-12-18T22:41:25.738Z,3.40
2018-12-18T22:43:28.931Z,3.30
2018-12-18T22:45:32.415Z,3.30
2018-12-18T22:47:35.996Z,3.30
2018-12-18T22:49:39.482Z,3.30
2018-12-18T22:51:42.968Z,3.20
2018-12-18T22:53:46.180Z,3.20
2018-12-18T22:55:49.374Z,3.20
2018-12-18T22:57:52.851Z,3.20
2018-12-18T22:59:57.683Z,3.20
2018-12-18T23:02:05.825Z,3.10
2018-12-18T23:04:09.309Z,3.20
2018-12-18T23:06:13.594Z,3.10
2018-12-18T23:08:17.417Z,3.10
2018-12-18T23:10:21.609Z,3.10
2018-12-18T23:12:25.193Z,3.10
2018-12-18T23:14:28.741Z,3.10
2018-12-18T23:16:32.821Z,3.10
2018-12-18T23:18:36.022Z,3.10
2018-12-18T23:20:40.020Z,3.10
2018-12-18T23:22:43.511Z,3.10
2018-12-18T23:24:47.006Z,3.00
2018-12-18T23:26:50.327Z,3.00
2018-12-18T23:28:53.827Z,3.00
2018-12-18T23:30:57.330Z,3.00
2018-12-18T23:33:01.129Z,3.00
2018-12-18T23:35:04.739Z,3.00
2018-12-18T23:37:08.246Z,2.90
2018-12-18T23:39:11.523Z,2.90
2018-12-18T23:41:15.658Z,2.80
2018-12-18T23:43:19.958Z,2.80
2018-12-18T23:45:24.247Z,2.80
2018-12-18T23:47:27.750Z,2.80
2018-12-18T23:49:30.934Z,2.80
2018-12-18T23:51:34.485Z,2.80
2018-12-18T23:53:37.980Z,2.80
2018-12-18T23:55:41.454Z,2.70
2018-12-18T23:57:44.977Z,2.80
2018-12-18T23:59:48.170Z,2.80
